Time;durP1;ratioP1;P1;durP2;ratioP2;P2;SDS_P1;SDS_P2;PMS_P1;PMS_P2;Temp;Humidity;BMP_temperature;BMP_pressure;BME280_temperature;BME280_humidity;BME280_pressure;Samples;Min_cycle;Max_cycle;Signal;HPM_P1;HPM_P2
2021/12/28 00:00:57;;;;;;;96.70;25.60;;;;;;;0.81;100.00;96862.88;5096385;28;20605;-73
2021/12/28 00:03:24;;;;;;;131.97;24.87;;;;;;;0.60;100.00;96855.53;5095276;28;20597;-73
2021/12/28 00:05:50;;;;;;;125.50;32.33;;;;;;;0.70;100.00;96860.25;5094487;28;20608;-73
2021/12/28 00:08:19;;;;;;;132.83;27.90;;;;;;;0.76;100.00;96857.50;5091409;28;20651;-73
2021/12/28 00:10:46;;;;;;;106.97;24.50;;;;;;;0.70;100.00;96855.78;5092877;28;20606;-72
2021/12/28 00:13:13;;;;;;;87.80;25.17;;;;;;;0.77;100.00;96856.50;5096590;28;20612;-72
2021/12/28 00:15:49;;;;;;;91.23;20.70;;;;;;;0.67;100.00;96852.81;5096914;28;20636;-73
2021/12/28 00:18:18;;;;;;;76.63;23.70;;;;;;;0.62;100.00;96842.97;5093726;28;20667;-73
2021/12/28 00:20:46;;;;;;;114.03;26.23;;;;;;;0.65;100.00;96839.88;5092984;28;20601;-73
2021/12/28 00:23:18;;;;;;;110.17;26.03;;;;;;;0.68;100.00;96836.81;5096854;28;20597;-73
2021/12/28 00:25:45;;;;;;;131.67;26.93;;;;;;;0.60;100.00;96839.78;5093053;28;20611;-73
2021/12/28 00:28:12;;;;;;;82.17;19.37;;;;;;;0.61;100.00;96830.88;5093166;28;20659;-73
2021/12/28 00:30:39;;;;;;;113.33;24.60;;;;;;;0.62;100.00;96839.56;5093533;28;20656;-73
2021/12/28 00:33:07;;;;;;;148.97;31.43;;;;;;;0.66;100.00;96838.88;5099531;28;20616;-72
2021/12/28 00:35:37;;;;;;;143.27;30.60;;;;;;;0.65;100.00;96837.25;5099562;28;20604;-72
2021/12/28 00:38:06;;;;;;;142.40;29.93;;;;;;;0.56;100.00;96846.50;5096863;28;20748;-72
2021/12/28 00:40:33;;;;;;;133.93;25.80;;;;;;;0.69;100.00;96833.16;5095078;28;20602;-72
2021/12/28 00:43:00;;;;;;;124.07;25.47;;;;;;;0.60;100.00;96831.88;5099465;28;20600;-72
2021/12/28 00:45:27;;;;;;;147.00;30.27;;;;;;;0.63;100.00;96835.88;5098239;28;21028;-73
2021/12/28 00:47:54;;;;;;;98.17;18.20;;;;;;;0.63;100.00;96836.69;5096576;28;20588;-73
2021/12/28 00:50:21;;;;;;;144.23;32.83;;;;;;;0.64;100.00;96835.69;5097495;28;21173;-72
2021/12/28 00:52:50;;;;;;;113.13;22.37;;;;;;;0.58;100.00;96833.16;5104720;28;20681;-72
2021/12/28 00:55:18;;;;;;;98.97;20.47;;;;;;;0.59;100.00;96825.03;5101348;28;21536;-73
2021/12/28 00:57:46;;;;;;;109.73;25.27;;;;;;;0.49;100.00;96828.22;5101438;28;20651;-73
2021/12/28 01:00:15;;;;;;;100.17;27.23;;;;;;;0.44;100.00;96825.47;5098625;28;20594;-72
2021/12/28 01:02:42;;;;;;;103.50;25.60;;;;;;;0.51;100.00;96835.88;5099186;28;20605;-71
2021/12/28 01:05:10;;;;;;;124.83;26.33;;;;;;;0.46;100.00;96827.88;5101228;28;20634;-73
2021/12/28 01:07:37;;;;;;;96.40;24.10;;;;;;;0.54;100.00;96833.59;5099623;28;20995;-72
2021/12/28 01:10:09;;;;;;;100.43;20.30;;;;;;;0.44;100.00;96837.78;5088016;28;20693;-71
2021/12/28 01:12:36;;;;;;;124.97;27.40;;;;;;;0.56;100.00;96836.00;5095026;28;20605;-73
2021/12/28 01:15:06;;;;;;;105.33;28.60;;;;;;;0.54;100.00;96835.41;5086749;28;20621;-73
2021/12/28 01:17:33;;;;;;;62.77;15.40;;;;;;;0.52;100.00;96833.03;5095076;28;20644;-73
2021/12/28 01:19:59;;;;;;;92.57;19.77;;;;;;;0.51;100.00;96831.44;5097140;28;20644;-73
2021/12/28 01:22:26;;;;;;;105.33;21.67;;;;;;;0.55;100.00;96831.78;5098275;28;20619;-73
2021/12/28 01:24:53;;;;;;;95.57;20.33;;;;;;;0.58;100.00;96841.84;5091212;28;20659;-73
2021/12/28 01:27:21;;;;;;;105.30;24.43;;;;;;;0.50;100.00;96829.00;5098141;28;20604;-73
2021/12/28 01:29:47;;;;;;;104.13;20.20;;;;;;;0.54;100.00;96838.06;5098501;28;20612;-72
2021/12/28 01:32:14;;;;;;;109.10;22.80;;;;;;;0.57;100.00;96828.91;5096043;28;20627;-73
2021/12/28 01:34:43;;;;;;;100.13;18.87;;;;;;;0.55;100.00;96834.41;5096191;28;20609;-73
2021/12/28 01:37:10;;;;;;;71.53;15.53;;;;;;;0.58;100.00;96833.97;5097955;28;20669;-73
2021/12/28 01:39:36;;;;;;;60.83;13.13;;;;;;;0.48;100.00;96833.69;5098831;28;20604;-73
2021/12/28 01:42:05;;;;;;;73.93;16.43;;;;;;;0.49;100.00;96832.69;5095779;28;20585;-72
2021/12/28 01:44:35;;;;;;;90.53;18.77;;;;;;;0.54;100.00;96830.16;5094501;28;20617;-72
2021/12/28 01:47:02;;;;;;;94.57;14.50;;;;;;;0.52;100.00;96829.59;5097240;28;20604;-72
2021/12/28 01:49:28;;;;;;;73.33;14.80;;;;;;;0.48;100.00;96831.06;5097303;28;20666;-73
2021/12/28 01:51:55;;;;;;;82.37;16.60;;;;;;;0.40;100.00;96820.91;5095913;28;20611;-72
2021/12/28 01:54:22;;;;;;;62.83;11.00;;;;;;;0.42;100.00;96810.97;5100374;28;20703;-72
2021/12/28 01:56:49;;;;;;;100.73;16.50;;;;;;;0.41;100.00;96814.59;5100936;28;20612;-72
2021/12/28 01:59:18;;;;;;;74.20;19.53;;;;;;;0.41;100.00;96815.41;5101743;28;20735;-72
2021/12/28 02:01:47;;;;;;;65.13;13.20;;;;;;;0.38;100.00;96825.56;5098544;28;20608;-72
2021/12/28 02:04:15;;;;;;;74.60;14.33;;;;;;;0.40;100.00;96829.56;5102719;28;20609;-72
2021/12/28 02:06:43;;;;;;;92.17;18.70;;;;;;;0.39;100.00;96821.91;5105628;28;20596;-72
2021/12/28 02:09:10;;;;;;;78.73;15.97;;;;;;;0.49;100.00;96811.66;5099832;28;20692;-71
2021/12/28 02:11:38;;;;;;;78.57;14.33;;;;;;;0.45;100.00;96811.31;5135075;27;20625;-71
2021/12/28 02:14:07;;;;;;;77.63;10.57;;;;;;;0.44;100.00;96803.66;5096211;28;20613;-71
2021/12/28 02:16:34;;;;;;;69.27;12.93;;;;;;;0.42;100.00;96797.84;5098366;28;20616;-71
2021/12/28 02:19:03;;;;;;;65.60;16.70;;;;;;;0.49;100.00;96795.91;5097845;28;20756;-72
2021/12/28 02:21:32;;;;;;;60.20;16.80;;;;;;;0.48;100.00;96807.44;5098040;28;20619;-72
2021/12/28 02:23:58;;;;;;;85.80;17.00;;;;;;;0.47;100.00;96797.94;5090249;28;20609;-71
2021/12/28 02:26:25;;;;;;;86.10;19.13;;;;;;;0.57;100.00;96803.44;5093015;28;20600;-72
2021/12/28 02:28:52;;;;;;;95.13;17.60;;;;;;;0.51;100.00;96797.28;5095946;28;20598;-71
2021/12/28 02:31:19;;;;;;;65.00;15.90;;;;;;;0.63;100.00;96797.28;5097838;28;20662;-72
2021/12/28 02:33:48;;;;;;;53.70;9.47;;;;;;;0.54;100.00;96790.78;5095657;28;20601;-72
2021/12/28 02:36:16;;;;;;;74.77;13.07;;;;;;;0.56;100.00;96786.06;5094629;28;20613;-73
2021/12/28 02:38:45;;;;;;;98.47;17.83;;;;;;;0.58;100.00;96789.28;5094571;28;20645;-73
2021/12/28 02:41:13;;;;;;;93.73;17.00;;;;;;;0.63;100.00;96786.78;5096396;28;20596;-73
2021/12/28 02:43:42;;;;;;;88.33;14.20;;;;;;;0.58;100.00;96797.19;5097383;28;20665;-73
2021/12/28 02:46:10;;;;;;;79.90;14.37;;;;;;;0.66;100.00;96791.56;5093591;28;20606;-72
2021/12/28 02:48:38;;;;;;;66.10;12.77;;;;;;;0.57;100.00;96779.81;5093648;28;20606;-71
2021/12/28 02:51:07;;;;;;;93.57;12.60;;;;;;;0.63;100.00;96786.78;5094291;28;20638;-71
2021/12/28 02:53:34;;;;;;;89.23;15.30;;;;;;;0.64;100.00;96783.13;5100309;28;20612;-71
2021/12/28 02:56:03;;;;;;;72.17;15.43;;;;;;;0.62;100.00;96782.53;5093611;28;21034;-71
2021/12/28 02:58:33;;;;;;;57.87;12.97;;;;;;;0.59;100.00;96785.63;5092137;28;20649;-71
2021/12/28 03:01:04;;;;;;;72.77;15.47;;;;;;;0.54;100.00;96780.25;5095281;28;20620;-71
2021/12/28 03:03:32;;;;;;;52.53;16.10;;;;;;;0.65;100.00;96774.22;5096885;28;20612;-72
2021/12/28 03:06:01;;;;;;;65.27;14.00;;;;;;;0.72;100.00;96759.13;5094619;28;20632;-72
2021/12/28 03:08:29;;;;;;;69.80;13.97;;;;;;;0.58;100.00;96762.22;5092422;28;20645;-72
2021/12/28 03:10:58;;;;;;;105.90;18.40;;;;;;;0.58;100.00;96752.53;5094857;28;20617;-71
2021/12/28 03:13:28;;;;;;;76.77;16.17;;;;;;;0.66;100.00;96760.06;5096787;28;20635;-72
2021/12/28 03:15:55;;;;;;;50.73;10.47;;;;;;;0.60;100.00;96758.34;5093493;28;20614;-72
2021/12/28 03:18:22;;;;;;;52.33;13.03;;;;;;;0.66;100.00;96773.19;5092041;28;20671;-71
2021/12/28 03:20:49;;;;;;;41.77;8.20;;;;;;;0.65;100.00;96768.94;5094801;28;20597;-72
2021/12/28 03:23:18;;;;;;;70.23;12.73;;;;;;;0.68;100.00;96773.75;5101746;28;21179;-72
2021/12/28 03:25:45;;;;;;;74.27;15.10;;;;;;;0.64;100.00;96769.19;5095490;28;20619;-71
2021/12/28 03:28:17;;;;;;;67.53;14.33;;;;;;;0.65;100.00;96747.94;5093083;28;20608;-72
2021/12/28 03:30:46;;;;;;;57.13;16.77;;;;;;;0.71;100.00;96746.25;5093942;28;20589;-72
2021/12/28 03:33:12;;;;;;;85.17;16.50;;;;;;;0.66;100.00;96728.53;5097361;28;20592;-71
2021/12/28 03:35:40;;;;;;;58.33;14.20;;;;;;;0.67;100.00;96721.44;5096045;28;20645;-72
2021/12/28 03:38:06;;;;;;;65.60;15.43;;;;;;;0.71;100.00;96733.91;5093170;28;20649;-72
2021/12/28 03:40:34;;;;;;;76.27;13.77;;;;;;;0.73;100.00;96736.28;5093706;28;20609;-72
2021/12/28 03:43:01;;;;;;;69.47;15.10;;;;;;;0.75;100.00;96731.59;5096052;28;20612;-72
2021/12/28 03:45:30;;;;;;;92.00;16.90;;;;;;;0.62;100.00;96724.75;5095753;28;20857;-72
2021/12/28 03:47:58;;;;;;;58.83;13.50;;;;;;;0.72;100.00;96722.34;5094048;28;20604;-71
2021/12/28 03:50:25;;;;;;;65.93;19.57;;;;;;;0.77;100.00;96719.84;5093153;28;20636;-72
2021/12/28 03:52:53;;;;;;;80.33;15.30;;;;;;;0.75;100.00;96724.53;5101229;28;20620;-71
2021/12/28 03:55:19;;;;;;;44.13;6.60;;;;;;;0.65;100.00;96726.91;5096447;28;20601;-71
2021/12/28 03:57:46;;;;;;;53.07;10.50;;;;;;;0.66;100.00;96725.09;5096610;28;20662;-71
2021/12/28 04:00:16;;;;;;;74.93;19.50;;;;;;;0.69;100.00;96728.06;5092734;28;20597;-71
2021/12/28 04:02:42;;;;;;;83.33;21.13;;;;;;;0.69;100.00;96717.56;5094340;28;20605;-71
2021/12/28 04:05:12;;;;;;;66.87;15.57;;;;;;;0.70;100.00;96718.38;5095840;28;20626;-71
2021/12/28 04:07:39;;;;;;;109.00;21.10;;;;;;;0.75;100.00;96724.53;5096362;28;20604;-71
2021/12/28 04:10:09;;;;;;;103.43;17.87;;;;;;;0.68;100.00;96729.09;5093778;28;20593;-72
2021/12/28 04:12:36;;;;;;;86.27;21.90;;;;;;;0.69;100.00;96722.81;5094036;28;21138;-72
2021/12/28 04:15:03;;;;;;;76.80;21.73;;;;;;;0.64;100.00;96725.34;5097373;28;20604;-72
2021/12/28 04:17:31;;;;;;;107.60;23.90;;;;;;;0.68;100.00;96721.19;5096322;28;20603;-72
2021/12/28 04:19:58;;;;;;;110.43;24.23;;;;;;;0.64;100.00;96714.84;5092696;28;21024;-72
2021/12/28 04:22:26;;;;;;;104.73;21.93;;;;;;;0.67;100.00;96719.63;5096272;28;20698;-72
2021/12/28 04:24:53;;;;;;;73.30;20.07;;;;;;;0.67;100.00;96718.81;5086469;28;20610;-72
2021/12/28 04:27:20;;;;;;;100.33;22.37;;;;;;;0.81;100.00;96710.47;5096084;28;20605;-71
2021/12/28 04:29:47;;;;;;;79.90;19.37;;;;;;;0.75;100.00;96700.06;5094643;28;20635;-71
2021/12/28 04:32:13;;;;;;;63.07;19.40;;;;;;;0.75;100.00;96703.50;5092738;28;20689;-71
2021/12/28 04:34:40;;;;;;;52.63;14.50;;;;;;;0.77;100.00;96692.78;5092656;28;20639;-71
2021/12/28 04:37:07;;;;;;;101.97;23.60;;;;;;;0.66;100.00;96707.50;5096313;28;21198;-71
2021/12/28 04:39:35;;;;;;;89.33;25.03;;;;;;;0.69;100.00;96701.00;5096012;28;20644;-71
2021/12/28 04:42:02;;;;;;;107.03;25.87;;;;;;;0.72;100.00;96706.59;5092594;28;20594;-71
2021/12/28 04:44:28;;;;;;;91.63;17.20;;;;;;;0.66;100.00;96702.25;5092287;28;20651;-72
2021/12/28 04:46:55;;;;;;;89.73;22.40;;;;;;;0.69;100.00;96691.28;5094630;28;20598;-72
2021/12/28 04:49:25;;;;;;;107.43;24.27;;;;;;;0.68;100.00;96700.19;5096334;28;21652;-71
2021/12/28 04:51:52;;;;;;;95.50;22.90;;;;;;;0.65;100.00;96697.25;5093801;28;20661;-71
2021/12/28 04:54:20;;;;;;;81.33;23.13;;;;;;;0.66;100.00;96691.75;5097891;28;20613;-72
2021/12/28 04:56:48;;;;;;;78.10;21.87;;;;;;;0.70;100.00;96676.31;5093901;28;20589;-72
2021/12/28 04:59:15;;;;;;;77.40;23.00;;;;;;;0.71;100.00;96670.84;5096238;28;20640;-72
2021/12/28 05:01:42;;;;;;;99.93;23.33;;;;;;;0.67;100.00;96663.66;5095321;28;20612;-72
2021/12/28 05:04:09;;;;;;;88.93;23.30;;;;;;;0.73;100.00;96655.66;5091865;28;20605;-72
2021/12/28 05:06:37;;;;;;;87.83;20.40;;;;;;;0.68;100.00;96663.41;5091408;28;20875;-73
2021/12/28 05:09:05;;;;;;;98.60;23.10;;;;;;;0.71;100.00;96662.16;5095910;28;20580;-72
2021/12/28 05:11:32;;;;;;;95.20;22.27;;;;;;;0.77;100.00;96662.06;5095289;28;20592;-72
2021/12/28 05:14:01;;;;;;;69.47;18.47;;;;;;;0.63;100.00;96660.69;5093169;28;20655;-71
2021/12/28 05:16:30;;;;;;;77.90;20.40;;;;;;;0.68;100.00;96668.66;5091116;28;20614;-71
2021/12/28 05:18:58;;;;;;;102.40;24.83;;;;;;;0.72;100.00;96671.63;5097042;28;20645;-72
2021/12/28 05:21:24;;;;;;;83.43;19.07;;;;;;;0.77;100.00;96667.31;5100224;28;20616;-71
2021/12/28 05:23:51;;;;;;;88.87;21.43;;;;;;;0.76;100.00;96670.94;5094951;28;20594;-71
2021/12/28 05:26:18;;;;;;;90.77;24.73;;;;;;;0.86;100.00;96660.66;5096215;28;20597;-71
2021/12/28 05:28:45;;;;;;;92.00;23.07;;;;;;;0.78;100.00;96661.00;5096605;28;20602;-71
2021/12/28 05:31:13;;;;;;;73.93;20.17;;;;;;;0.77;100.00;96667.31;5099576;28;21165;-71
2021/12/28 05:33:41;;;;;;;78.07;22.43;;;;;;;0.81;100.00;96660.53;5100061;28;20604;-70
2021/12/28 05:36:08;;;;;;;128.67;27.43;;;;;;;0.84;100.00;96657.44;5097116;28;20605;-71
2021/12/28 05:38:35;;;;;;;94.23;19.30;;;;;;;0.76;100.00;96660.44;5095762;28;20648;-70
2021/12/28 05:41:02;;;;;;;68.87;11.67;;;;;;;0.72;100.00;96654.03;5099817;28;20603;-71
2021/12/28 05:43:29;;;;;;;70.03;14.60;;;;;;;0.69;100.00;96651.06;5100378;28;20604;-71
2021/12/28 05:45:56;;;;;;;101.37;20.20;;;;;;;0.72;100.00;96650.63;5097828;28;21176;-72
2021/12/28 05:48:24;;;;;;;102.27;24.70;;;;;;;0.73;100.00;96662.72;5096421;28;20691;-71
2021/12/28 05:50:51;;;;;;;76.30;16.07;;;;;;;0.69;100.00;96651.06;5097490;28;20605;-71
2021/12/28 05:53:18;;;;;;;94.53;21.40;;;;;;;0.74;100.00;96649.38;5105096;28;20600;-71
2021/12/28 05:55:44;;;;;;;131.53;26.67;;;;;;;0.74;100.00;96643.31;5098068;28;20921;-70
2021/12/28 05:58:11;;;;;;;118.63;23.47;;;;;;;0.65;100.00;96634.19;5093763;28;20612;-71
2021/12/28 06:00:38;;;;;;;93.13;23.80;;;;;;;0.67;100.00;96635.56;5094911;28;20631;-71
2021/12/28 06:03:06;;;;;;;65.43;19.90;;;;;;;0.68;100.00;96646.88;5095334;28;20678;-71
2021/12/28 06:05:34;;;;;;;104.60;23.37;;;;;;;0.74;100.00;96645.94;5094794;28;20597;-71
2021/12/28 06:08:01;;;;;;;108.43;25.70;;;;;;;0.66;100.00;96636.56;5097792;28;20615;-72
2021/12/28 06:10:27;;;;;;;76.73;18.17;;;;;;;0.63;100.00;96644.91;5098397;28;21010;-71
2021/12/28 06:12:54;;;;;;;92.33;20.00;;;;;;;0.62;100.00;96647.78;5096123;28;20638;-71
2021/12/28 06:15:21;;;;;;;89.10;19.90;;;;;;;0.74;100.00;96641.50;5094970;28;21357;-71
2021/12/28 06:17:47;;;;;;;70.07;19.37;;;;;;;0.66;100.00;96639.22;5096428;28;20635;-71
2021/12/28 06:20:14;;;;;;;83.97;18.97;;;;;;;0.68;100.00;96634.50;5097293;28;20679;-71
2021/12/28 06:22:42;;;;;;;86.77;25.97;;;;;;;0.63;100.00;96633.59;5096735;28;20609;-71
2021/12/28 06:25:09;;;;;;;82.53;22.27;;;;;;;0.64;100.00;96624.72;5089330;28;20593;-71
2021/12/28 06:27:36;;;;;;;93.43;21.10;;;;;;;0.68;100.00;96628.47;5098199;28;20605;-71
2021/12/28 06:30:04;;;;;;;84.40;24.00;;;;;;;0.68;100.00;96624.00;5092919;28;21273;-72
2021/12/28 06:32:31;;;;;;;123.67;29.27;;;;;;;0.64;100.00;96627.34;5093459;28;20597;-74
2021/12/28 06:34:58;;;;;;;89.57;19.47;;;;;;;0.66;100.00;96631.31;5095740;28;20609;-72
2021/12/28 06:37:24;;;;;;;96.97;21.63;;;;;;;0.64;100.00;96624.72;5097920;28;20596;-71
2021/12/28 06:39:52;;;;;;;101.77;23.70;;;;;;;0.68;100.00;96637.13;5096090;28;20677;-72
2021/12/28 06:42:19;;;;;;;83.37;21.27;;;;;;;0.69;100.00;96635.31;5092918;28;21125;-72
2021/12/28 06:44:47;;;;;;;100.17;18.70;;;;;;;0.63;100.00;96623.91;5100854;28;21268;-72
2021/12/28 06:47:14;;;;;;;78.73;20.60;;;;;;;0.59;100.00;96625.38;5103831;28;20687;-72
2021/12/28 06:49:41;;;;;;;64.20;16.20;;;;;;;0.64;100.00;96630.78;5096761;28;20594;-72
2021/12/28 06:52:08;;;;;;;87.67;20.83;;;;;;;0.63;100.00;96626.53;5101947;28;20609;-71
2021/12/28 06:54:37;;;;;;;92.07;22.63;;;;;;;0.63;100.00;96641.50;5098612;28;20643;-72
2021/12/28 06:57:07;;;;;;;63.50;18.03;;;;;;;0.65;100.00;96637.59;5101589;28;20609;-72
2021/12/28 06:59:35;;;;;;;75.80;20.10;;;;;;;0.56;100.00;96646.88;5098719;28;20727;-72
2021/12/28 07:02:01;;;;;;;91.70;21.80;;;;;;;0.60;100.00;96640.13;5098309;28;20601;-72
2021/12/28 07:04:28;;;;;;;54.33;15.60;;;;;;;0.61;100.00;96644.38;5098511;28;20598;-72
2021/12/28 07:06:55;;;;;;;63.07;16.20;;;;;;;0.57;100.00;96648.47;5095797;28;20638;-72
2021/12/28 07:09:21;;;;;;;62.67;16.00;;;;;;;0.58;100.00;96659.78;5097199;28;20618;-72
2021/12/28 07:11:48;;;;;;;54.87;13.63;;;;;;;0.58;100.00;96663.22;5094765;28;20608;-72
2021/12/28 07:14:16;;;;;;;99.63;17.33;;;;;;;0.67;100.00;96667.09;5092730;28;20594;-71
2021/12/28 07:16:43;;;;;;;88.93;21.90;;;;;;;0.61;100.00;96678.50;5094388;28;20807;-72
2021/12/28 07:19:11;;;;;;;105.00;23.70;;;;;;;0.61;100.00;96682.97;5095655;28;20644;-71
2021/12/28 07:21:38;;;;;;;69.90;14.17;;;;;;;0.64;100.00;96685.94;5097006;28;21262;-71
2021/12/28 07:24:05;;;;;;;109.07;23.77;;;;;;;0.64;100.00;96690.38;5090829;28;21253;-71
2021/12/28 07:26:32;;;;;;;110.37;24.67;;;;;;;0.65;100.00;96676.22;5094558;28;20631;-70
2021/12/28 07:28:59;;;;;;;115.67;26.07;;;;;;;0.63;100.00;96676.44;5097244;28;20601;-71
2021/12/28 07:31:27;;;;;;;109.13;27.43;;;;;;;0.65;100.00;96666.50;5095621;28;21348;-71
2021/12/28 07:33:54;;;;;;;83.70;22.90;;;;;;;0.65;100.00;96658.63;5095217;28;21235;-71
2021/12/28 07:36:21;;;;;;;102.33;22.43;;;;;;;0.73;100.00;96650.41;5092639;28;20632;-73
2021/12/28 07:38:48;;;;;;;97.37;21.57;;;;;;;0.74;100.00;96645.94;5094911;28;20590;-71
2021/12/28 07:41:14;;;;;;;81.80;24.43;;;;;;;0.75;100.00;96644.91;5096296;28;20634;-71
2021/12/28 07:43:41;;;;;;;72.37;22.33;;;;;;;0.71;100.00;96641.97;5096159;28;20620;-72
2021/12/28 07:46:08;;;;;;;83.90;24.20;;;;;;;0.79;100.00;96640.78;5092986;28;20616;-72
2021/12/28 07:48:37;;;;;;;90.23;22.53;;;;;;;0.66;100.00;96639.22;5093773;28;20601;-71
2021/12/28 07:51:03;;;;;;;125.47;28.87;;;;;;;0.69;100.00;96632.69;5097615;28;20609;-71
2021/12/28 07:53:30;;;;;;;114.90;22.40;;;;;;;0.71;100.00;96634.06;5103002;28;20600;-71
2021/12/28 07:55:58;;;;;;;91.07;17.83;;;;;;;0.64;100.00;96622.88;5094824;28;20601;-72
2021/12/28 07:58:25;;;;;;;104.17;22.63;;;;;;;0.69;100.00;96628.22;5092566;28;21256;-71
2021/12/28 08:00:52;;;;;;;111.20;24.03;;;;;;;0.72;100.00;96627.78;5096713;28;20716;-72
2021/12/28 08:03:19;;;;;;;86.73;22.47;;;;;;;0.76;100.00;96612.34;5097790;28;20597;-72
2021/12/28 08:05:48;;;;;;;102.80;23.67;;;;;;;0.77;100.00;96616.56;5096292;28;20668;-72
2021/12/28 08:08:14;;;;;;;88.17;21.33;;;;;;;0.70;100.00;96614.06;5093767;28;20604;-71
2021/12/28 08:10:41;;;;;;;129.57;27.80;;;;;;;0.85;100.00;96616.19;5093910;28;20594;-71
2021/12/28 08:13:08;;;;;;;117.10;22.43;;;;;;;0.84;100.00;96610.13;5096858;28;20712;-72
2021/12/28 08:15:35;;;;;;;84.50;20.40;;;;;;;0.76;100.00;96605.25;5096237;28;21064;-72
2021/12/28 08:18:03;;;;;;;78.70;21.70;;;;;;;0.75;100.00;96601.03;5091543;28;20593;-72
2021/12/28 08:20:30;;;;;;;103.07;21.60;;;;;;;0.75;100.00;96606.28;5091855;28;21207;-72
2021/12/28 08:22:58;;;;;;;125.30;25.73;;;;;;;0.82;100.00;96604.34;5097126;28;21084;-72
2021/12/28 08:25:25;;;;;;;69.50;15.50;;;;;;;0.78;100.00;96615.53;5090775;28;20600;-72
2021/12/28 08:27:52;;;;;;;80.30;19.77;;;;;;;0.86;100.00;96623.88;5093516;28;21323;-72
2021/12/28 08:30:20;;;;;;;83.47;16.90;;;;;;;0.90;100.00;96629.44;5092939;28;20605;-72
2021/12/28 08:32:48;;;;;;;91.97;21.30;;;;;;;0.96;100.00;96639.03;5093669;28;20585;-73
2021/12/28 08:35:17;;;;;;;103.10;21.03;;;;;;;1.00;100.00;96633.06;5095940;28;20664;-72
2021/12/28 08:37:44;;;;;;;64.50;18.20;;;;;;;1.01;100.00;96639.13;5093494;28;20673;-72
2021/12/28 08:40:15;;;;;;;83.97;17.57;;;;;;;1.03;100.00;96637.06;5095872;28;20636;-72
2021/12/28 08:42:42;;;;;;;88.43;17.67;;;;;;;0.98;100.00;96634.34;5095406;28;20609;-72
2021/12/28 08:45:10;;;;;;;55.40;11.03;;;;;;;1.00;100.00;96646.22;5092417;28;20694;-72
2021/12/28 08:47:37;;;;;;;70.77;14.13;;;;;;;1.05;100.00;96654.19;5092340;28;20628;-72
2021/12/28 08:50:09;;;;;;;97.47;19.60;;;;;;;1.12;100.00;96661.13;5095339;28;20604;-73
2021/12/28 08:52:36;;;;;;;71.63;18.13;;;;;;;1.12;100.00;96658.50;5097160;28;20601;-73
2021/12/28 08:55:03;;;;;;;80.77;17.37;;;;;;;1.06;100.00;96641.84;5098566;28;20605;-73
2021/12/28 08:57:31;;;;;;;54.57;16.63;;;;;;;1.09;100.00;96652.69;5098471;28;20601;-73
2021/12/28 08:59:58;;;;;;;83.73;17.20;;;;;;;1.06;100.00;96642.66;5096354;28;20688;-73
2021/12/28 09:02:25;;;;;;;77.83;13.40;;;;;;;1.13;100.00;96644.34;5096884;28;20663;-73
2021/12/28 09:04:51;;;;;;;87.07;20.07;;;;;;;1.24;100.00;96657.44;5097203;28;20617;-73
2021/12/28 09:07:19;;;;;;;56.67;18.70;;;;;;;1.25;100.00;96664.31;5099750;28;20611;-73
2021/12/28 09:09:47;;;;;;;91.13;18.07;;;;;;;1.22;100.00;96669.22;5097531;28;20608;-73
2021/12/28 09:12:13;;;;;;;66.90;15.57;;;;;;;1.19;100.00;96664.44;5096609;28;20602;-73
2021/12/28 09:14:41;;;;;;;61.27;15.83;;;;;;;1.23;100.00;96668.22;5096847;28;20609;-73
2021/12/28 09:17:12;;;;;;;73.67;16.63;;;;;;;1.24;100.00;96667.19;5100295;28;20611;-72
2021/12/28 09:19:38;;;;;;;47.50;16.40;;;;;;;1.21;100.00;96662.41;5099924;28;20941;-72
2021/12/28 09:22:05;;;;;;;73.20;19.47;;;;;;;1.24;100.00;96657.44;5089069;28;20635;-72
2021/12/28 09:24:32;;;;;;;57.03;16.10;;;;;;;1.23;100.00;96653.22;5092840;28;20707;-72
2021/12/28 09:26:59;;;;;;;54.17;16.67;;;;;;;1.22;100.00;96659.50;5099753;28;20635;-72
2021/12/28 09:29:29;;;;;;;85.67;17.73;;;;;;;1.26;100.00;96667.75;5098812;28;20605;-73
2021/12/28 09:31:58;;;;;;;76.97;18.20;;;;;;;1.34;100.00;96668.16;5096302;28;20640;-72
2021/12/28 09:34:27;;;;;;;67.47;13.43;;;;;;;1.27;100.00;96669.34;5097170;28;20620;-75
2021/12/28 09:36:55;;;;;;;31.83;9.80;;;;;;;1.24;100.00;96661.94;5097321;28;20644;-73
2021/12/28 09:39:26;;;;;;;78.40;17.57;;;;;;;1.24;100.00;96657.44;5098560;28;20600;-76
2021/12/28 09:41:54;;;;;;;64.97;18.03;;;;;;;1.26;100.00;96644.06;5097035;28;20642;-72
2021/12/28 09:44:22;;;;;;;90.93;17.97;;;;;;;1.15;100.00;96650.97;5094872;28;20679;-72
2021/12/28 09:46:49;;;;;;;58.27;14.73;;;;;;;1.12;100.00;96642.75;5096160;28;20623;-73
2021/12/28 09:49:17;;;;;;;82.00;15.13;;;;;;;1.17;100.00;96656.00;5098263;28;21148;-74
2021/12/28 09:51:44;;;;;;;62.73;12.70;;;;;;;1.12;100.00;96638.28;5096735;28;20670;-73
2021/12/28 09:54:11;;;;;;;33.20;10.17;;;;;;;1.17;100.00;96648.13;5100728;28;20613;-73
2021/12/28 09:56:38;;;;;;;81.00;16.70;;;;;;;1.17;100.00;96642.84;5095044;28;20613;-73
2021/12/28 09:59:06;;;;;;;100.40;17.30;;;;;;;1.22;100.00;96642.94;5094511;28;20610;-72
2021/12/28 10:01:33;;;;;;;45.93;11.47;;;;;;;1.21;100.00;96644.00;5095277;28;20647;-73
2021/12/28 10:04:00;;;;;;;61.30;16.53;;;;;;;1.31;100.00;96634.44;5095851;28;20609;-73
2021/12/28 10:06:30;;;;;;;86.10;14.80;;;;;;;1.26;100.00;96629.09;5097005;28;20614;-72
2021/12/28 10:09:09;;;;;;;76.43;14.27;;;;;;;1.24;100.00;96622.50;5094435;28;20604;-73
2021/12/28 10:11:38;;;;;;;109.17;18.57;;;;;;;1.25;100.00;96627.50;5093453;28;20676;-72
2021/12/28 10:14:16;;;;;;;53.87;9.67;;;;;;;1.16;100.00;96623.66;5096765;28;20593;-72
2021/12/28 10:16:48;;;;;;;74.43;17.40;;;;;;;1.25;100.00;96611.72;5095762;28;20647;-72
2021/12/28 10:19:35;;;;;;;62.80;17.33;;;;;;;1.34;100.00;96630.53;5094676;28;20605;-72
2021/12/28 10:22:28;;;;;;;55.43;12.77;;;;;;;1.23;100.00;96605.09;5097308;28;20601;-72
2021/12/28 10:24:58;;;;;;;85.27;16.23;;;;;;;1.26;100.00;96602.81;5088568;28;20598;-72
2021/12/28 10:27:27;;;;;;;80.73;20.60;;;;;;;1.31;100.00;96599.44;5097622;28;20597;-73
2021/12/28 10:29:54;;;;;;;45.20;14.77;;;;;;;1.36;100.00;96599.56;5094531;28;20584;-73
2021/12/28 10:32:25;;;;;;;78.77;23.80;;;;;;;1.40;100.00;96593.56;5092919;28;20613;-73
2021/12/28 10:34:54;;;;;;;75.13;16.97;;;;;;;1.40;100.00;96592.78;5097044;28;20631;-72
2021/12/28 10:37:25;;;;;;;86.53;18.17;;;;;;;1.33;100.00;96585.03;5098536;28;20627;-73
2021/12/28 10:39:56;;;;;;;68.80;15.73;;;;;;;1.45;100.00;96574.47;5095623;28;20612;-73
2021/12/28 10:42:42;;;;;;;72.07;17.50;;;;;;;1.50;100.00;96572.72;5093928;28;20624;-73
2021/12/28 10:45:12;;;;;;;40.93;10.07;;;;;;;1.53;100.00;96577.50;5093840;28;20778;-73
2021/12/28 10:47:38;;;;;;;69.73;19.60;;;;;;;1.60;100.00;96593.94;5092628;28;20609;-72
2021/12/28 10:50:21;;;;;;;76.97;19.60;;;;;;;1.70;100.00;96595.13;5085542;28;20602;-72
2021/12/28 10:52:52;;;;;;;90.30;20.60;;;;;;;1.70;100.00;96593.31;5099479;28;20710;-73
2021/12/28 10:55:22;;;;;;;54.23;10.47;;;;;;;1.58;100.00;96580.19;5095752;28;20609;-73
2021/12/28 10:57:49;;;;;;;119.43;18.90;;;;;;;1.62;100.00;96568.16;5096226;28;20601;-73
2021/12/28 11:00:26;;;;;;;42.47;9.30;;;;;;;1.68;100.00;96563.78;5093499;28;20672;-71
2021/12/28 11:03:14;;;;;;;120.13;22.13;;;;;;;1.70;100.00;96553.03;5093982;28;20613;-72
2021/12/28 11:05:41;;;;;;;77.67;16.87;;;;;;;1.71;100.00;96555.41;5095274;28;20636;-72
2021/12/28 11:08:10;;;;;;;62.40;12.97;;;;;;;1.75;100.00;96553.91;5092016;28;21221;-73
2021/12/28 11:10:43;;;;;;;76.77;19.37;;;;;;;1.71;100.00;96536.97;5092246;28;20685;-72
2021/12/28 11:13:12;;;;;;;77.73;16.50;;;;;;;1.76;100.00;96544.97;5092529;28;20651;-72
2021/12/28 11:15:43;;;;;;;74.40;14.60;;;;;;;1.76;100.00;96536.28;5093706;28;21302;-72
2021/12/28 11:18:31;;;;;;;81.43;20.17;;;;;;;1.89;100.00;96528.81;5086050;28;20621;-72